Time;durP1;ratioP1;P1;durP2;ratioP2;P2;SDS_P1;SDS_P2;PMS_P1;PMS_P2;Temp;Humidity;BMP_temperature;BMP_pressure;BME280_temperature;BME280_humidity;BME280_pressure;Samples;Min_cycle;Max_cycle;Signal;HPM_P1;HPM_P2
2021/10/14 00:01:33;;;;;;;;;;;;;;;3.66;76.09;101021.56;5109714;28;20392;-69
2021/10/14 00:04:02;;;;;;;;;;;;;;;3.67;76.64;101018.88;5109995;28;20442;-70
2021/10/14 00:06:30;;;;;;;;;;;;;;;3.69;76.69;101016.16;5108956;28;19972;-69
2021/10/14 00:08:58;;;;;;;;;;;;;;;3.72;76.59;101010.75;5108408;28;19992;-69
2021/10/14 00:11:27;;;;;;;;;;;;;;;3.83;76.27;101005.91;5108652;28;19987;-69
2021/10/14 00:13:56;;;;;;;;;;;;;;;3.92;76.08;100996.75;5109775;28;19971;-69
2021/10/14 00:16:24;;;;;;;;;;;;;;;3.97;75.89;100989.47;5108265;28;20009;-69
2021/10/14 00:18:52;;;;;;;;;;;;;;;4.03;75.72;100998.09;5109306;28;20007;-69
2021/10/14 00:21:20;;;;;;;;;;;;;;;4.09;75.72;100999.66;5109290;28;19976;-69
2021/10/14 00:23:48;;;;;;;;;;;;;;;4.13;75.21;100989.78;5109390;28;20427;-69
2021/10/14 00:26:16;;;;;;;;;;;;;;;4.14;75.99;100978.22;5109334;28;19936;-69
2021/10/14 00:28:43;;;;;;;;;;;;;;;4.15;75.78;100978.16;5109381;28;19992;-69
2021/10/14 00:31:13;;;;;;;;;;;;;;;4.14;76.01;100980.88;5107085;28;20183;-69
2021/10/14 00:33:40;;;;;;;;;;;;;;;4.19;75.74;100965.63;5103975;28;19972;-69
2021/10/14 00:36:08;;;;;;;;;;;;;;;4.18;76.13;100961.22;5108912;28;19995;-69
2021/10/14 00:38:36;;;;;;;;;;;;;;;4.17;76.20;100957.72;5090494;28;19984;-69
2021/10/14 00:41:04;;;;;;;;;;;;;;;4.25;75.84;100947.66;5109379;28;19974;-69
2021/10/14 00:43:32;;;;;;;;;;;;;;;4.23;76.04;100959.25;5109295;28;19972;-69
2021/10/14 00:46:00;;;;;;;;;;;;;;;4.21;76.15;100951.34;5108903;28;19975;-69
2021/10/14 00:48:29;;;;;;;;;;;;;;;4.28;76.28;100946.66;5087592;28;19972;-69
2021/10/14 00:50:57;;;;;;;;;;;;;;;4.31;75.74;100947.44;5106561;28;19972;-69
2021/10/14 00:53:25;;;;;;;;;;;;;;;4.37;75.72;100941.00;5108462;28;19979;-69
2021/10/14 00:55:53;;;;;;;;;;;;;;;4.02;75.99;100884.78;5108873;28;20342;-69
2021/10/14 00:58:20;;;;;;;;;;;;;;;4.38;75.58;100952.50;5108644;28;20488;-69
2021/10/14 01:00:48;;;;;;;;;;;;;;;4.45;75.68;100959.31;5105732;28;19972;-69
2021/10/14 01:03:16;;;;;;;;;;;;;;;4.38;77.01;100950.72;5108004;28;19999;-69
2021/10/14 01:05:46;;;;;;;;;;;;;;;4.52;75.89;100944.84;5083616;28;19972;-69
2021/10/14 01:08:14;;;;;;;;;;;;;;;4.70;75.70;100943.25;5102597;28;19980;-69
2021/10/14 01:10:42;;;;;;;;;;;;;;;4.75;76.35;100928.84;5108053;28;19995;-69
2021/10/14 01:13:10;;;;;;;;;;;;;;;4.92;75.28;100920.19;5101793;28;20033;-69
2021/10/14 01:15:38;;;;;;;;;;;;;;;5.06;75.29;100923.09;5108051;28;20182;-69
2021/10/14 01:18:06;;;;;;;;;;;;;;;5.22;74.70;100926.00;5107999;28;19998;-69
2021/10/14 01:20:35;;;;;;;;;;;;;;;5.34;74.38;100921.94;5108610;28;20339;-69
2021/10/14 01:23:03;;;;;;;;;;;;;;;5.40;74.58;100927.84;5107927;28;20614;-69
2021/10/14 01:25:31;;;;;;;;;;;;;;;5.42;74.67;100927.78;5108138;28;19972;-69
2021/10/14 01:27:59;;;;;;;;;;;;;;;5.39;74.82;100933.25;5107668;28;20229;-69
2021/10/14 01:30:27;;;;;;;;;;;;;;;5.34;74.82;100920.13;5108091;28;19977;-69
2021/10/14 01:32:55;;;;;;;;;;;;;;;5.29;74.93;100920.34;5108167;28;20033;-69
2021/10/14 01:35:23;;;;;;;;;;;;;;;5.30;75.24;100914.06;5107943;28;19976;-69
2021/10/14 01:37:52;;;;;;;;;;;;;;;5.28;75.59;100905.28;5108450;28;19995;-69
2021/10/14 01:40:20;;;;;;;;;;;;;;;5.28;75.75;100905.28;5098046;28;19980;-69
2021/10/14 01:42:48;;;;;;;;;;;;;;;5.34;75.18;100898.84;5109227;28;20334;-67
2021/10/14 01:45:16;;;;;;;;;;;;;;;5.37;74.55;100884.50;5108418;28;19976;-67
2021/10/14 01:47:44;;;;;;;;;;;;;;;5.42;74.80;100885.16;5109109;28;19972;-67
2021/10/14 01:50:11;;;;;;;;;;;;;;;5.45;74.38;100885.03;5112841;28;19979;-68
2021/10/14 01:52:39;;;;;;;;;;;;;;;5.52;74.33;100881.19;5093135;28;20010;-68
2021/10/14 01:55:09;;;;;;;;;;;;;;;5.58;74.21;100880.91;5112124;28;20025;-69
2021/10/14 01:57:37;;;;;;;;;;;;;;;5.65;74.12;100877.03;5100770;28;20034;-69
2021/10/14 02:00:05;;;;;;;;;;;;;;;5.67;74.18;100877.81;5109985;28;20427;-68
2021/10/14 02:02:38;;;;;;;;;;;;;;;5.72;74.02;100878.47;5111800;28;20019;-69
2021/10/14 02:05:07;;;;;;;;;;;;;;;5.77;73.72;100876.47;5112249;28;19974;-69
2021/10/14 02:07:35;;;;;;;;;;;;;;;5.81;74.04;100886.03;5110785;28;19980;-69
2021/10/14 02:10:03;;;;;;;;;;;;;;;5.83;73.80;100876.19;5111525;28;19968;-69
2021/10/14 02:12:33;;;;;;;;;;;;;;;5.85;74.07;100869.00;5111227;28;19972;-69
2021/10/14 02:15:00;;;;;;;;;;;;;;;5.86;73.55;100869.84;5082850;28;19971;-69
2021/10/14 02:17:28;;;;;;;;;;;;;;;5.83;74.14;100870.88;5111692;28;19984;-69
2021/10/14 02:19:56;;;;;;;;;;;;;;;5.83;73.90;100870.88;5111649;28;20066;-69
2021/10/14 02:22:24;;;;;;;;;;;;;;;5.82;74.03;100866.47;5111612;28;19972;-68
2021/10/14 02:24:52;;;;;;;;;;;;;;;5.81;73.93;100859.38;5111787;28;20436;-69
2021/10/14 02:27:19;;;;;;;;;;;;;;;5.84;73.95;100851.28;5111532;28;19972;-69
2021/10/14 02:29:49;;;;;;;;;;;;;;;5.80;75.06;100860.31;5111289;27;19972;-69
2021/10/14 02:32:16;;;;;;;;;;;;;;;5.85;74.90;100857.47;5118030;27;20398;-69
2021/10/14 02:34:44;;;;;;;;;;;;;;;5.90;74.22;100856.34;5110655;28;20477;-68
2021/10/14 02:37:12;;;;;;;;;;;;;;;5.95;74.46;100852.59;5111370;28;19972;-68
2021/10/14 02:39:40;;;;;;;;;;;;;;;5.99;73.95;100840.84;5111255;28;20603;-69
2021/10/14 02:42:08;;;;;;;;;;;;;;;6.06;73.86;100842.28;5111845;28;20004;-69
2021/10/14 02:44:36;;;;;;;;;;;;;;;6.15;73.47;100847.19;5111194;28;19979;-68
2021/10/14 02:47:05;;;;;;;;;;;;;;;6.23;73.60;100837.03;5111315;28;20029;-69
2021/10/14 02:49:33;;;;;;;;;;;;;;;6.26;73.79;100834.22;5111017;28;20023;-69
2021/10/14 02:52:01;;;;;;;;;;;;;;;6.35;74.56;100831.09;5111138;28;20003;-69
2021/10/14 02:54:29;;;;;;;;;;;;;;;6.39;74.03;100816.66;5110712;28;19979;-68
2021/10/14 02:56:57;;;;;;;;;;;;;;;6.36;75.10;100821.28;5109227;27;20439;-68
2021/10/14 02:59:25;;;;;;;0.75;0.75;;;;;;;6.40;74.65;100828.19;5109741;28;19945;-68
2021/10/14 03:01:53;;;;;;;1.08;1.08;;;;;;;6.54;74.00;100831.91;5108947;28;20684;-68
2021/10/14 03:04:23;;;;;;;1.10;1.10;;;;;;;6.59;73.40;100822.81;5109229;28;20206;-68
2021/10/14 03:06:51;;;;;;;0.97;0.97;;;;;;;6.55;73.58;100822.09;5110690;28;20553;-68
2021/10/14 03:09:19;;;;;;;0.97;0.97;;;;;;;6.54;74.07;100823.91;5091484;28;20202;-67
2021/10/14 03:11:47;;;;;;;0.87;0.87;;;;;;;6.41;73.65;100798.78;5099063;28;20288;-68
2021/10/14 03:14:15;;;;;;;1.00;1.00;;;;;;;6.63;73.66;100817.25;5107355;28;20217;-68
2021/10/14 03:16:43;;;;;;;1.00;1.00;;;;;;;6.62;73.27;100811.97;5109477;27;20225;-68
2021/10/14 03:19:11;;;;;;;1.30;1.30;;;;;;;6.65;73.42;100812.69;5109511;28;20225;-68
2021/10/14 03:21:41;;;;;;;0.87;0.87;;;;;;;6.72;73.26;100810.56;5106708;28;20214;-68
2021/10/14 03:24:09;;;;;;;0.90;0.90;;;;;;;6.66;73.07;100803.75;5101378;27;20424;-68
2021/10/14 03:26:37;;;;;;;0.97;0.97;;;;;;;6.61;73.27;100810.25;5109401;28;20541;-68
2021/10/14 03:29:05;;;;;;;0.77;0.77;;;;;;;6.62;73.33;100806.66;5109893;28;20234;-68
2021/10/14 03:31:33;;;;;;;0.97;0.97;;;;;;;6.61;73.83;100811.13;5109942;28;20210;-69
2021/10/14 03:34:01;;;;;;;0.90;0.90;;;;;;;6.66;73.40;100808.22;5109928;28;20209;-68
2021/10/14 03:36:29;;;;;;;0.97;0.97;;;;;;;6.71;73.27;100804.38;5108740;28;20206;-68
2021/10/14 03:38:59;;;;;;;0.83;0.83;;;;;;;6.50;73.41;100769.00;5108857;28;20226;-68
2021/10/14 03:41:27;;;;;;;0.93;0.93;;;;;;;6.71;73.69;100790.16;5109189;28;20262;-68
2021/10/14 03:43:55;;;;;;;1.15;1.15;;;;;;;6.75;73.11;100791.75;5110182;28;20262;-69
2021/10/14 03:46:24;;;;;;;1.15;1.15;;;;;;;6.81;73.41;100786.09;5109544;28;20293;-68
2021/10/14 03:48:52;;;;;;;1.20;1.20;;;;;;;6.88;73.14;100797.31;5109892;28;20304;-68
2021/10/14 03:51:20;;;;;;;1.07;1.07;;;;;;;6.83;73.47;100790.41;5099749;28;20209;-68
2021/10/14 03:53:48;;;;;;;0.83;0.83;;;;;;;6.82;73.08;100787.81;5100525;27;20230;-68
2021/10/14 03:56:17;;;;;;;0.73;0.73;;;;;;;6.85;73.57;100793.88;5104755;28;20206;-68
2021/10/14 03:58:45;;;;;;;0.73;0.73;;;;;;;6.85;73.81;100779.66;5106904;27;20248;-68
2021/10/14 04:01:16;;;;;;;0.93;0.93;;;;;;;6.93;73.55;100773.91;5107547;28;20202;-69
2021/10/14 04:03:44;;;;;;;1.00;1.00;;;;;;;6.97;73.55;100787.00;5107315;28;20713;-68
2021/10/14 04:06:12;;;;;;;1.10;1.10;;;;;;;6.97;73.96;100780.81;5098735;28;20218;-68
2021/10/14 04:08:40;;;;;;;0.73;0.73;;;;;;;6.96;74.12;100773.75;5098048;28;20202;-68
2021/10/14 04:11:08;;;;;;;0.80;0.80;;;;;;;6.93;74.04;100765.91;5103377;28;20218;-71
2021/10/14 04:13:38;;;;;;;1.13;1.13;;;;;;;6.96;74.25;100773.75;5099984;28;20245;-68
2021/10/14 04:16:06;;;;;;;1.00;1.00;;;;;;;6.92;74.10;100750.84;5105332;28;20210;-68
2021/10/14 04:18:36;;;;;;;0.93;0.93;;;;;;;6.69;74.50;100701.31;5104504;28;20688;-68
2021/10/14 04:21:05;;;;;;;0.90;0.90;;;;;;;6.71;74.42;100715.44;5104876;28;20555;-68
2021/10/14 04:23:33;;;;;;;1.00;1.00;;;;;;;7.00;74.18;100764.63;5087229;28;20251;-68
2021/10/14 04:26:01;;;;;;;0.97;0.97;;;;;;;7.11;74.44;100759.59;5103632;28;20214;-68
2021/10/14 04:28:29;;;;;;;0.73;0.73;;;;;;;7.14;74.36;100759.44;5076169;28;20245;-67
2021/10/14 04:30:58;;;;;;;0.73;0.73;;;;;;;7.21;74.11;100759.97;5100968;28;20210;-68
2021/10/14 04:33:29;;;;;;;0.77;0.77;;;;;;;7.21;74.75;100757.31;5100426;28;20689;-67
2021/10/14 04:36:00;;;;;;;0.73;0.73;;;;;;;7.29;73.96;100757.75;5103634;28;20751;-68
2021/10/14 04:38:28;;;;;;;0.67;0.67;;;;;;;7.29;75.02;100758.59;5097895;28;20328;-67
2021/10/14 04:40:56;;;;;;;0.90;0.90;;;;;;;7.30;74.50;100760.31;5104106;28;20214;-68
2021/10/14 04:43:25;;;;;;;0.83;0.83;;;;;;;7.12;75.48;100740.84;5099727;28;20570;-68
2021/10/14 04:45:53;;;;;;;0.67;0.67;;;;;;;7.22;75.08;100749.19;5108518;27;20206;-68
2021/10/14 04:48:22;;;;;;;0.73;0.73;;;;;;;7.27;75.44;100752.47;5099713;28;20661;-69
2021/10/14 04:50:50;;;;;;;0.83;0.83;;;;;;;7.33;74.97;100737.94;5083206;28;20217;-68
2021/10/14 04:53:18;;;;;;;0.67;0.67;;;;;;;7.34;75.58;100739.66;5104325;28;20601;-68
2021/10/14 04:55:47;;;;;;;0.83;0.83;;;;;;;7.36;76.31;100745.81;5106224;28;20356;-68
2021/10/14 04:58:15;;;;;;;0.93;0.93;;;;;;;7.38;75.54;100733.22;5101424;28;20216;-69
2021/10/14 05:00:43;;;;;;;0.87;0.87;;;;;;;7.46;76.31;100731.84;5106684;28;20601;-67
2021/10/14 05:03:11;;;;;;;0.67;0.67;;;;;;;7.52;76.18;100737.78;5099946;28;20210;-68
2021/10/14 05:05:41;;;;;;;0.73;0.73;;;;;;;7.51;75.76;100728.91;5096722;28;20206;-68
2021/10/14 05:08:09;;;;;;;0.83;0.83;;;;;;;7.48;76.18;100731.75;5107990;28;20288;-67
2021/10/14 05:10:37;;;;;;;0.77;0.77;;;;;;;7.51;76.00;100731.59;5107824;28;20567;-68
2021/10/14 05:13:05;;;;;;;0.77;0.77;;;;;;;7.49;76.42;100728.13;5108398;28;20210;-68
2021/10/14 05:15:33;;;;;;;0.93;0.93;;;;;;;7.45;76.82;100724.78;5107690;28;20217;-69
2021/10/14 05:18:01;;;;;;;0.83;0.83;;;;;;;7.39;76.63;100708.22;5108205;28;20209;-68
2021/10/14 05:20:30;;;;;;;0.93;0.93;;;;;;;7.41;77.40;100722.38;5107773;28;20346;-67
2021/10/14 05:22:59;;;;;;;0.73;0.73;;;;;;;7.44;77.11;100722.19;5109711;28;20596;-68
2021/10/14 05:25:27;;;;;;;1.07;1.07;;;;;;;7.43;77.10;100720.47;5112510;28;20213;-67
2021/10/14 05:27:58;;;;;;;0.93;0.93;;;;;;;7.39;77.38;100708.22;5112380;28;20245;-68
2021/10/14 05:30:27;;;;;;;0.90;0.90;;;;;;;7.46;77.49;100706.94;5112371;28;20724;-68
2021/10/14 05:32:55;;;;;;;0.93;0.93;;;;;;;7.51;77.39;100710.22;5112425;28;20212;-67
2021/10/14 05:35:35;;;;;;;0.90;0.90;;;;;;;7.53;77.25;100702.09;5112008;28;20262;-68
2021/10/14 05:38:06;;;;;;;0.77;0.77;;;;;;;7.50;77.30;100703.16;5112355;28;20683;-68
2021/10/14 05:40:35;;;;;;;0.83;0.83;;;;;;;7.27;77.74;100660.81;5111786;28;20229;-67
2021/10/14 05:43:04;;;;;;;0.73;0.73;;;;;;;7.61;77.14;100706.06;5111856;28;20202;-68
2021/10/14 05:45:32;;;;;;;0.87;0.87;;;;;;;7.70;76.22;100702.03;5111785;28;20202;-68
2021/10/14 05:48:00;;;;;;;0.83;0.83;;;;;;;7.64;77.07;100692.53;5112127;28;20213;-68
2021/10/14 05:50:28;;;;;;;0.73;0.73;;;;;;;7.66;76.91;100689.81;5110432;28;20210;-68
2021/10/14 05:52:56;;;;;;;0.87;0.87;;;;;;;7.70;76.68;100683.31;5111084;28;20285;-67
2021/10/14 05:55:26;;;;;;;0.80;0.80;;;;;;;7.71;76.67;100682.38;5110698;28;20213;-67
2021/10/14 05:57:54;;;;;;;0.93;0.93;;;;;;;7.53;76.46;100636.16;5110368;28;20774;-67
2021/10/14 06:00:22;;;;;;;0.87;0.87;;;;;;;7.71;77.43;100675.22;5110920;28;20331;-67
2021/10/14 06:02:51;;;;;;;0.87;0.87;;;;;;;7.68;78.00;100651.34;5109738;28;20283;-67
2021/10/14 06:05:19;;;;;;;0.77;0.77;;;;;;;7.81;77.83;100664.00;5110421;28;20210;-67
2021/10/14 06:07:48;;;;;;;0.87;0.87;;;;;;;7.77;77.90;100660.63;5108822;28;20210;-67
2021/10/14 06:10:16;;;;;;;1.03;1.03;;;;;;;7.82;77.64;100657.69;5101565;28;20210;-67
2021/10/14 06:12:45;;;;;;;0.87;0.87;;;;;;;7.93;77.24;100665.94;5110873;28;20831;-67
2021/10/14 06:15:14;;;;;;;0.83;0.83;;;;;;;7.95;77.36;100664.03;5109370;28;20575;-67
2021/10/14 06:17:42;;;;;;;0.87;0.87;;;;;;;8.03;77.59;100664.47;5111023;28;20559;-67
2021/10/14 06:20:11;;;;;;;0.97;0.97;;;;;;;8.10;77.13;100658.66;5109779;28;20214;-67
2021/10/14 06:22:39;;;;;;;0.97;0.97;;;;;;;8.09;77.09;100656.09;5110717;28;20579;-67
2021/10/14 06:25:08;;;;;;;0.83;0.83;;;;;;;8.19;77.05;100659.06;5111036;28;20212;-72
2021/10/14 06:27:36;;;;;;;0.87;0.87;;;;;;;8.22;76.72;100661.56;5110600;28;20727;-73
2021/10/14 06:30:06;;;;;;;0.73;0.73;;;;;;;8.24;77.26;100665.00;5111099;28;20209;-73
2021/10/14 06:32:34;;;;;;;0.83;0.83;;;;;;;8.28;76.68;100658.53;5111082;28;20219;-72
2021/10/14 06:35:03;;;;;;;0.87;0.87;;;;;;;8.28;77.19;100656.72;5110468;28;20705;-73
2021/10/14 06:37:32;;;;;;;1.07;1.07;;;;;;;8.22;77.45;100645.50;5110337;28;20596;-73
2021/10/14 06:40:00;;;;;;;0.87;0.87;;;;;;;8.25;77.33;100645.31;5111038;28;20233;-73
2021/10/14 06:42:28;;;;;;;0.70;0.70;;;;;;;8.26;77.31;100636.34;5110724;28;20210;-73
2021/10/14 06:44:56;;;;;;;0.97;0.97;;;;;;;8.24;77.40;100631.09;5109800;28;20206;-73
2021/10/14 06:47:26;;;;;;;0.83;0.83;;;;;;;8.28;76.83;100632.66;5110598;28;20206;-73
2021/10/14 06:49:54;;;;;;;0.97;0.97;;;;;;;8.31;76.88;100621.78;5110342;28;20205;-73
2021/10/14 06:52:22;;;;;;;1.03;1.03;;;;;;;8.39;76.59;100629.34;5110678;28;20213;-73
2021/10/14 06:54:50;;;;;;;0.87;0.87;;;;;;;8.50;76.19;100639.41;5109446;28;20404;-73
2021/10/14 06:57:18;;;;;;;0.87;0.87;;;;;;;8.36;77.08;100643.78;5110827;28;20444;-73
2021/10/14 06:59:46;;;;;;;0.90;0.90;;;;;;;8.39;77.30;100640.91;5110042;28;20734;-73
2021/10/14 07:02:14;;;;;;;0.87;0.87;;;;;;;8.42;76.87;100622.94;5109547;28;20578;-73
2021/10/14 07:04:44;;;;;;;1.00;1.00;;;;;;;8.46;75.91;100637.88;5091676;28;20210;-73
2021/10/14 07:07:12;;;;;;;0.77;0.77;;;;;;;8.49;76.54;100624.28;5110484;28;20223;-73
2021/10/14 07:09:40;;;;;;;0.73;0.73;;;;;;;8.47;77.33;100631.56;5110198;28;20241;-73
2021/10/14 07:12:10;;;;;;;0.77;0.77;;;;;;;8.33;79.09;100627.91;5110494;28;20630;-73
2021/10/14 07:14:38;;;;;;;0.77;0.77;;;;;;;8.38;78.40;100620.47;5109579;28;20214;-73
2021/10/14 07:17:07;;;;;;;0.93;0.93;;;;;;;8.39;79.08;100619.50;5109174;28;20210;-73
2021/10/14 07:19:37;;;;;;;0.73;0.73;;;;;;;8.29;79.82;100612.13;5109798;28;20255;-73
2021/10/14 07:22:07;;;;;;;0.97;0.97;;;;;;;8.25;80.70;100618.56;5110203;28;20283;-72
2021/10/14 07:24:35;;;;;;;0.83;0.83;;;;;;;8.32;79.17;100625.31;5109664;28;20206;-73
2021/10/14 07:27:03;;;;;;;0.77;0.77;;;;;;;8.42;78.83;100628.31;5109914;28;20615;-72
2021/10/14 07:29:32;;;;;;;0.93;0.93;;;;;;;8.42;79.33;100630.97;5110279;28;20566;-73
2021/10/14 07:32:05;;;;;;;1.00;1.00;;;;;;;8.44;79.74;100629.06;5109946;28;20222;-72
2021/10/14 07:34:34;;;;;;;0.97;0.97;;;;;;;8.48;79.19;100620.75;5109491;28;20209;-73
2021/10/14 07:37:03;;;;;;;1.00;1.00;;;;;;;8.47;79.44;100612.81;5109742;28;20210;-73
2021/10/14 07:39:32;;;;;;;0.87;0.87;;;;;;;8.55;79.72;100607.84;5109592;28;20213;-73
2021/10/14 07:42:01;;;;;;;0.97;0.97;;;;;;;8.49;80.17;100611.78;5109729;28;20232;-73
2021/10/14 07:44:29;;;;;;;0.93;0.93;;;;;;;8.53;80.47;100607.09;5109621;28;20597;-72
2021/10/14 07:46:58;;;;;;;0.97;0.97;;;;;;;8.50;81.05;100596.56;5108015;28;20210;-73
2021/10/14 07:49:26;;;;;;;1.00;1.00;;;;;;;8.55;81.38;100594.47;5109458;28;20217;-73
2021/10/14 07:51:54;;;;;;;0.77;0.77;;;;;;;8.55;81.41;100581.09;5091026;28;20577;-73
2021/10/14 07:54:22;;;;;;;0.97;0.97;;;;;;;8.69;81.30;100594.50;5109253;28;20214;-73
2021/10/14 07:56:52;;;;;;;0.93;0.93;;;;;;;8.77;81.11;100592.19;5109222;28;20222;-73
2021/10/14 07:59:20;;;;;;;1.00;1.00;;;;;;;8.89;79.23;100577.19;5109248;28;20217;-73
2021/10/14 08:01:48;;;;;;;0.73;0.73;;;;;;;9.00;79.04;100580.03;5108971;28;20229;-73
2021/10/14 08:04:17;;;;;;;0.83;0.83;;;;;;;9.07;80.42;100580.50;5109122;28;20288;-73
2021/10/14 08:06:46;;;;;;;0.90;0.90;;;;;;;9.11;79.81;100584.69;5108665;28;20245;-73
2021/10/14 08:09:14;;;;;;;0.77;0.77;;;;;;;9.09;80.12;100573.22;5109235;28;20210;-72
2021/10/14 08:11:42;;;;;;;0.87;0.87;;;;;;;9.23;78.88;100570.53;5108820;28;20206;-73
2021/10/14 08:14:12;;;;;;;0.87;0.87;;;;;;;9.31;77.88;100562.84;5109063;28;20561;-73
2021/10/14 08:16:41;;;;;;;0.73;0.73;;;;;;;9.28;78.91;100558.53;5107617;28;20291;-73
2021/10/14 08:19:09;;;;;;;0.77;0.77;;;;;;;9.32;78.54;100561.88;5109435;28;20262;-73
2021/10/14 08:21:37;;;;;;;0.87;0.87;;;;;;;9.42;79.42;100559.44;5108511;28;20705;-73
2021/10/14 08:24:06;;;;;;;1.10;1.10;;;;;;;9.45;78.67;100559.22;5090137;28;20214;-73
2021/10/14 08:26:34;;;;;;;0.97;0.97;;;;;;;9.46;79.48;100561.81;5101111;28;20224;-73
2021/10/14 08:29:02;;;;;;;0.97;0.97;;;;;;;9.44;79.11;100562.88;5090298;28;20269;-74
2021/10/14 08:31:31;;;;;;;0.83;0.83;;;;;;;9.46;79.34;100555.59;5109043;28;20205;-73
2021/10/14 08:34:01;;;;;;;0.87;0.87;;;;;;;9.46;79.95;100551.09;5108742;28;20739;-73
2021/10/14 08:36:30;;;;;;;0.93;0.93;;;;;;;9.48;79.26;100548.31;5109220;28;20206;-72
2021/10/14 08:38:58;;;;;;;1.03;1.03;;;;;;;9.59;78.90;100533.25;5108881;28;20221;-73
2021/10/14 08:41:26;;;;;;;0.80;0.80;;;;;;;9.63;78.42;100526.72;5108894;28;20222;-73
2021/10/14 08:43:57;;;;;;;0.83;0.83;;;;;;;9.68;77.65;100534.44;5108334;28;20209;-72
2021/10/14 08:46:26;;;;;;;1.43;1.40;;;;;;;9.59;77.99;100519.84;5106486;28;20210;-73
2021/10/14 08:48:56;;;;;;;1.17;1.17;;;;;;;9.69;77.96;100533.47;5108024;28;20214;-73
2021/10/14 08:51:24;;;;;;;1.10;1.10;;;;;;;9.64;78.47;100528.44;5108626;28;20566;-73
2021/10/14 08:53:52;;;;;;;1.00;1.00;;;;;;;9.73;78.02;100526.06;5107950;28;20414;-73
2021/10/14 08:56:20;;;;;;;1.30;1.30;;;;;;;9.78;77.61;100524.78;5108042;28;20206;-73
2021/10/14 08:58:49;;;;;;;1.40;1.38;;;;;;;9.78;77.88;100524.78;5108015;28;20205;-73
2021/10/14 09:01:17;;;;;;;1.00;1.00;;;;;;;9.82;78.19;100520.13;5108168;28;20225;-73
2021/10/14 09:03:48;;;;;;;1.10;1.10;;;;;;;9.76;78.49;100521.38;5107860;28;20231;-73
2021/10/14 09:06:18;;;;;;;0.87;0.87;;;;;;;9.83;77.93;100521.84;5108148;28;20206;-73
2021/10/14 09:08:48;;;;;;;0.73;0.73;;;;;;;9.82;78.88;100517.44;5107905;28;20209;-73
2021/10/14 09:11:19;;;;;;;0.77;0.77;;;;;;;9.81;78.62;100519.25;5108559;28;20198;-72
2021/10/14 09:13:50;;;;;;;1.03;1.03;;;;;;;9.87;77.97;100518.81;5107707;28;20206;-73
2021/10/14 09:16:28;;;;;;;0.87;0.87;;;;;;;9.86;77.60;100494.78;5106543;28;20278;-73
2021/10/14 09:19:09;;;;;;;1.10;1.10;;;;;;;10.06;77.34;100522.91;5085838;28;20210;-73
2021/10/14 09:21:41;;;;;;;1.03;1.03;;;;;;;10.10;76.89;100511.00;5101455;28;20283;-73
2021/10/14 09:24:27;;;;;;;0.93;0.93;;;;;;;10.13;77.59;100508.97;5108106;28;20390;-73
2021/10/14 09:26:56;;;;;;;1.13;1.13;;;;;;;10.12;77.95;100507.28;5107649;28;20221;-73
2021/10/14 09:29:27;;;;;;;1.03;1.03;;;;;;;10.18;77.31;100504.16;5108186;28;20246;-73
2021/10/14 09:31:58;;;;;;;1.07;1.07;;;;;;;10.22;76.81;100503.00;5107968;28;20206;-73
2021/10/14 09:34:34;;;;;;;1.13;1.13;;;;;;;10.27;77.85;100500.84;5108084;28;20234;-73
2021/10/14 09:37:06;;;;;;;1.03;1.03;;;;;;;10.30;77.66;100493.53;5089725;28;20228;-73
2021/10/14 09:39:34;;;;;;;1.03;1.03;;;;;;;10.38;77.99;100497.38;5107734;28;20320;-73
2021/10/14 09:42:02;;;;;;;1.10;1.10;;;;;;;10.42;78.99;100493.56;5107844;28;20225;-73
2021/10/14 09:44:50;;;;;;;0.97;0.97;;;;;;;10.38;77.08;100461.63;5107475;28;20210;-73
2021/10/14 09:47:18;;;;;;;0.83;0.83;;;;;;;10.57;77.56;100502.31;5106675;28;20668;-73
2021/10/14 09:49:47;;;;;;;1.10;1.10;;;;;;;10.59;76.79;100489.63;5107424;28;20229;-68
2021/10/14 09:52:16;;;;;;;0.93;0.93;;;;;;;10.72;75.00;100489.63;5107652;28;20199;-68
2021/10/14 09:54:45;;;;;;;1.20;1.20;;;;;;;10.74;75.70;100493.91;5107373;28;20476;-67
2021/10/14 09:57:13;;;;;;;1.00;1.00;;;;;;;10.76;74.56;100491.13;5107627;28;20224;-67
2021/10/14 09:59:43;;;;;;;0.90;0.90;;;;;;;10.71;75.95;100491.44;5107699;28;20233;-68
2021/10/14 10:02:12;;;;;;;0.93;0.93;;;;;;;10.72;76.52;100487.81;5107723;28;20693;-68
2021/10/14 10:04:43;;;;;;;0.93;0.93;;;;;;;10.69;76.72;100498.75;5107182;28;20255;-67
2021/10/14 10:07:14;;;;;;;1.07;1.07;;;;;;;10.75;76.87;100484.03;5107885;28;20206;-68
2021/10/14 10:09:44;;;;;;;1.03;1.03;;;;;;;10.75;76.20;100479.53;5109906;28;20270;-67
2021/10/14 10:12:13;;;;;;;0.93;0.93;;;;;;;10.85;75.77;100485.06;5111474;28;20217;-72
2021/10/14 10:14:41;;;;;;;1.03;1.03;;;;;;;10.90;75.13;100488.28;5110220;28;20218;-73
2021/10/14 10:17:11;;;;;;;0.87;0.87;;;;;;;10.83;76.01;100476.25;5110981;28;20225;-73
2021/10/14 10:19:43;;;;;;;0.93;0.93;;;;;;;10.78;75.51;100460.50;5092658;28;20591;-67
2021/10/14 10:22:12;;;;;;;1.00;1.00;;;;;;;10.85;75.27;100464.44;5111485;28;20218;-67
2021/10/14 10:24:40;;;;;;;0.93;0.93;;;;;;;10.93;75.61;100473.75;5110827;28;20210;-68
2021/10/14 10:27:10;;;;;;;0.83;0.83;;;;;;;10.78;76.96;100468.56;5111063;28;20286;-68
2021/10/14 10:29:44;;;;;;;1.00;1.00;;;;;;;10.87;75.90;100465.19;5111044;28;20221;-67
2021/10/14 10:32:23;;;;;;;0.93;0.93;;;;;;;10.88;76.83;100464.22;5111220;28;20241;-67
2021/10/14 10:37:48;;;;;;;0.83;0.83;;;;;;;10.80;76.46;100434.38;5110721;28;20217;-73
2021/10/14 10:40:25;;;;;;;0.93;0.93;;;;;;;10.94;76.51;100456.66;5111025;28;20213;-68
2021/10/14 10:43:08;;;;;;;0.77;0.77;;;;;;;10.58;76.56;100380.50;5097428;28;20509;-67
2021/10/14 10:45:56;;;;;;;1.08;1.08;;;;;;;10.95;77.11;100437.75;5109372;28;20221;-67
2021/10/14 10:48:34;;;;;;;0.93;0.93;;;;;;;10.95;76.77;100435.06;5111221;28;20566;-67
2021/10/14 10:51:04;;;;;;;0.98;0.98;;;;;;;10.91;77.75;100425.50;5110806;28;20300;-68
2021/10/14 10:53:40;;;;;;;1.00;1.00;;;;;;;11.00;76.58;100419.44;5110625;28;20695;-67
2021/10/14 10:56:26;;;;;;;0.97;0.97;;;;;;;11.10;76.21;100423.19;5110632;28;20232;-72
2021/10/14 10:58:56;;;;;;;1.07;1.07;;;;;;;11.17;73.80;100416.34;5110294;28;20854;-73
2021/10/14 11:01:25;;;;;;;0.93;0.93;;;;;;;11.19;74.39;100414.41;5110326;28;20213;-73
2021/10/14 11:03:55;;;;;;;1.03;1.03;;;;;;;11.24;75.21;100415.88;5109891;28;20290;-73
2021/10/14 11:06:24;;;;;;;0.97;0.97;;;;;;;11.26;75.49;100403.19;5110234;28;20214;-73
2021/10/14 11:08:53;;;;;;;1.03;1.03;;;;;;;11.20;75.91;100400.00;5110162;28;20494;-73
2021/10/14 11:11:22;;;;;;;1.03;1.03;;;;;;;11.26;76.08;100397.81;5110341;28;20237;-72
2021/10/14 11:13:53;;;;;;;5.17;4.87;;;;;;;11.06;74.96;100345.59;5109099;27;20198;-73
2021/10/14 11:16:26;;;;;;;4.27;3.97;;;;;;;11.31;75.72;100391.09;5110054;28;20580;-73
2021/10/14 11:18:56;;;;;;;6.47;5.97;;;;;;;11.26;76.22;100376.31;5109815;28;20266;-73
2021/10/14 11:21:42;;;;;;;2.73;2.60;;;;;;;11.28;76.87;100380.59;5108966;28;20215;-72
2021/10/14 11:24:10;;;;;;;7.70;7.07;;;;;;;11.37;74.63;100382.59;5091983;28;20208;-73
2021/10/14 11:26:39;;;;;;;10.00;9.10;;;;;;;11.42;76.25;100377.72;5109736;28;20198;-72
2021/10/14 11:29:10;;;;;;;11.00;10.00;;;;;;;11.44;77.43;100381.13;5110049;28;20226;-73
2021/10/14 11:31:42;;;;;;;10.37;9.47;;;;;;;11.50;77.43;100364.53;5109535;28;20193;-72
2021/10/14 11:34:15;;;;;;;10.47;9.57;;;;;;;11.58;76.74;100360.38;5109927;28;20205;-73
2021/10/14 11:36:52;;;;;;;9.27;8.50;;;;;;;11.40;76.69;100325.88;5109668;28;20418;-67
2021/10/14 11:39:22;;;;;;;10.27;9.37;;;;;;;11.77;75.19;100368.72;5109566;28;20210;-67
2021/10/14 11:41:55;;;;;;;10.67;9.77;;;;;;;11.62;75.98;100335.81;5109508;28;20665;-68
2021/10/14 11:44:26;;;;;;;11.30;10.30;;;;;;;11.91;75.61;100363.13;5108707;28;20202;-67
2021/10/14 11:46:56;;;;;;;11.63;10.60;;;;;;;11.96;75.76;100360.94;5109168;28;20500;-68
2021/10/14 11:49:26;;;;;;;10.33;9.43;;;;;;;11.64;75.12;100304.28;5108546;28;20209;-73
2021/10/14 11:51:55;;;;;;;11.33;10.33;;;;;;;11.98;75.83;100345.53;5109138;28;20294;-73
2021/10/14 11:54:23;;;;;;;11.10;10.10;;;;;;;12.03;75.16;100340.63;5090965;28;20216;-68
2021/10/14 11:56:53;;;;;;;10.83;9.87;;;;;;;12.07;76.79;100347.47;5108899;28;20211;-73
2021/10/14 11:59:23;;;;;;;11.20;10.20;;;;;;;12.05;75.44;100327.06;5091010;28;20210;-68
2021/10/14 12:01:55;;;;;;;11.23;10.23;;;;;;;12.07;76.16;100325.09;5109144;28;20726;-68